Time;durP1;ratioP1;P1;durP2;ratioP2;P2;SDS_P1;SDS_P2;PMS_P1;PMS_P2;Temp;Humidity;BMP_temperature;BMP_pressure;BME280_temperature;BME280_humidity;BME280_pressure;Samples;Min_cycle;Max_cycle;Signal;HPM_P1;HPM_P2
2022/05/18 00:01:10;;;;;;;0.90;0.90;;;17.40;99.90;;;;;;5093997;28;20472;-82
2022/05/18 00:03:40;;;;;;;1.03;0.50;;;17.30;99.90;;;;;;5093949;28;20452;-82
2022/05/18 00:06:08;;;;;;;0.90;0.63;;;17.30;99.90;;;;;;5094042;28;20511;-82
2022/05/18 00:08:36;;;;;;;0.60;0.50;;;17.20;99.90;;;;;;5094034;28;20451;-82
2022/05/18 00:11:05;;;;;;;0.93;0.40;;;17.20;99.90;;;;;;5093554;28;20862;-82
2022/05/18 00:13:32;;;;;;;0.40;0.40;;;17.20;99.90;;;;;;5093593;28;20816;-82
2022/05/18 00:16:00;;;;;;;0.60;0.60;;;17.10;99.90;;;;;;5093877;28;20431;-82
2022/05/18 00:18:27;;;;;;;0.53;0.53;;;17.10;99.90;;;;;;5093849;28;20444;-82
2022/05/18 00:20:53;;;;;;;0.93;0.87;;;17.10;99.90;;;;;;5093447;28;20539;-82
2022/05/18 00:23:20;;;;;;;0.53;0.53;;;17.00;99.90;;;;;;5092870;28;20451;-82
2022/05/18 00:25:47;;;;;;;0.70;0.60;;;17.00;99.90;;;;;;5093664;28;20484;-82
2022/05/18 00:28:14;;;;;;;0.50;0.50;;;17.00;99.90;;;;;;5093649;28;20470;-82
2022/05/18 00:30:40;;;;;;;0.63;0.57;;;17.00;99.90;;;;;;5093291;28;20994;-82
2022/05/18 00:33:10;;;;;;;0.63;0.50;;;17.00;99.90;;;;;;5093612;28;20436;-82
2022/05/18 00:35:38;;;;;;;0.87;0.87;;;16.90;99.90;;;;;;5093601;28;20448;-82
2022/05/18 00:38:06;;;;;;;0.83;0.83;;;16.90;99.90;;;;;;5093600;28;20456;-82
2022/05/18 00:40:34;;;;;;;1.03;0.60;;;16.90;99.90;;;;;;5093321;28;20540;-82
2022/05/18 00:43:01;;;;;;;0.40;0.40;;;16.80;99.90;;;;;;5093239;28;20463;-82
2022/05/18 00:45:29;;;;;;;0.60;0.60;;;16.80;99.90;;;;;;5093567;28;20506;-82
2022/05/18 00:47:56;;;;;;;2.30;0.40;;;16.70;99.90;;;;;;5093162;28;20447;-82
2022/05/18 00:50:28;;;;;;;1.00;0.60;;;16.70;99.90;;;;;;5093402;28;20467;-82
2022/05/18 00:53:02;;;;;;;1.27;0.90;;;16.70;99.90;;;;;;5093418;28;20919;-82
2022/05/18 00:55:32;;;;;;;0.53;0.53;;;16.60;99.90;;;;;;5093455;28;20440;-82
2022/05/18 00:58:09;;;;;;;0.60;0.50;;;16.60;99.90;;;;;;5093572;28;20783;-82
2022/05/18 01:00:39;;;;;;;1.13;0.70;;;16.60;99.90;;;;;;5092974;28;20474;-82
2022/05/18 01:03:10;;;;;;;0.70;0.70;;;16.50;99.90;;;;;;5093043;28;20438;-82
2022/05/18 01:05:42;;;;;;;0.60;0.60;;;16.40;99.90;;;;;;5093006;28;20994;-82
2022/05/18 01:08:11;;;;;;;0.60;0.60;;;16.30;99.90;;;;;;5093589;28;20444;-82
2022/05/18 01:10:38;;;;;;;0.53;0.50;;;16.30;99.90;;;;;;5093206;28;20473;-82
2022/05/18 01:13:06;;;;;;;2.27;0.70;;;16.30;99.90;;;;;;5093549;28;20467;-82
2022/05/18 01:15:33;;;;;;;0.70;0.50;;;16.20;99.90;;;;;;5093198;28;20441;-82
2022/05/18 01:18:01;;;;;;;0.60;0.50;;;16.10;99.90;;;;;;5093053;28;20452;-82
2022/05/18 01:20:33;;;;;;;0.63;0.60;;;16.10;99.90;;;;;;5093120;28;20502;-82
2022/05/18 01:23:30;;;;;;;0.50;0.50;;;16.00;99.90;;;;;;5092912;28;20915;-82
2022/05/18 01:26:06;;;;;;;4.33;1.03;;;16.00;99.90;;;;;;5093310;28;20487;-82
2022/05/18 01:28:38;;;;;;;3.03;0.70;;;16.00;99.90;;;;;;5093145;28;20412;-82
2022/05/18 01:31:05;;;;;;;0.73;0.73;;;16.00;99.90;;;;;;5093024;28;20468;-82
2022/05/18 01:33:33;;;;;;;0.60;0.60;;;15.90;99.90;;;;;;5092768;28;20452;-82
2022/05/18 01:36:01;;;;;;;1.43;0.70;;;15.80;99.90;;;;;;5095491;28;20444;-82
2022/05/18 01:38:28;;;;;;;0.50;0.50;;;15.80;99.90;;;;;;5096515;28;20938;-82
2022/05/18 01:41:02;;;;;;;0.50;0.40;;;15.80;99.90;;;;;;5096284;28;20487;-82
2022/05/18 01:43:34;;;;;;;0.50;0.40;;;15.80;99.90;;;;;;5096749;28;20434;-82
2022/05/18 01:46:05;;;;;;;2.70;0.80;;;15.80;99.90;;;;;;5096596;28;20467;-82
2022/05/18 01:48:34;;;;;;;0.57;0.50;;;15.80;99.90;;;;;;5096649;28;20447;-82
2022/05/18 01:51:02;;;;;;;1.03;0.60;;;15.80;99.90;;;;;;5096373;28;20875;-82
2022/05/18 01:53:30;;;;;;;1.07;0.50;;;15.70;99.90;;;;;;5096385;28;20455;-82
2022/05/18 01:55:57;;;;;;;0.60;0.60;;;15.60;99.90;;;;;;5096883;28;20435;-82
2022/05/18 01:58:25;;;;;;;1.30;1.20;;;15.60;99.90;;;;;;5096500;28;20455;-82
2022/05/18 02:00:53;;;;;;;0.90;0.53;;;15.60;99.90;;;;;;5096022;28;20839;-82
2022/05/18 02:03:23;;;;;;;0.70;0.40;;;15.50;99.90;;;;;;5096405;28;20451;-82
2022/05/18 02:05:51;;;;;;;0.60;0.50;;;15.50;99.90;;;;;;5096383;28;20471;-82
2022/05/18 02:08:18;;;;;;;0.50;0.50;;;15.40;99.90;;;;;;5096257;28;20447;-82
2022/05/18 02:10:45;;;;;;;0.60;0.50;;;15.40;99.90;;;;;;5095880;28;20468;-82
2022/05/18 02:13:12;;;;;;;0.70;0.70;;;15.30;99.90;;;;;;5096200;28;20455;-82
2022/05/18 02:15:39;;;;;;;0.40;0.40;;;15.30;99.90;;;;;;5096166;28;20447;-82
2022/05/18 02:18:06;;;;;;;1.20;0.50;;;15.30;99.90;;;;;;5096108;28;20432;-82
2022/05/18 02:20:34;;;;;;;0.70;0.70;;;15.30;99.90;;;;;;5095670;28;20469;-82
2022/05/18 02:23:01;;;;;;;0.60;0.60;;;15.20;99.90;;;;;;5096033;28;20432;-82
2022/05/18 02:25:28;;;;;;;0.57;0.57;;;15.30;99.90;;;;;;5095903;28;20491;-83
2022/05/18 02:27:56;;;;;;;0.60;0.60;;;15.40;99.90;;;;;;5095800;28;20459;-83
2022/05/18 02:30:23;;;;;;;1.37;0.53;;;15.50;99.90;;;;;;5095813;28;20460;-82
2022/05/18 02:32:49;;;;;;;1.10;0.70;;;15.50;99.90;;;;;;5095787;28;20452;-82
2022/05/18 02:35:16;;;;;;;0.90;0.90;;;15.60;99.90;;;;;;5095758;28;20448;-82
2022/05/18 02:37:44;;;;;;;1.63;0.70;;;15.70;99.90;;;;;;5095819;28;20452;-82
2022/05/18 02:40:12;;;;;;;0.57;0.57;;;15.70;99.90;;;;;;5095970;28;20487;-82
2022/05/18 02:42:38;;;;;;;1.13;0.60;;;15.70;99.90;;;;;;5095641;28;20432;-82
2022/05/18 02:45:07;;;;;;;0.53;0.53;;;15.70;99.90;;;;;;5095148;28;20486;-82
2022/05/18 02:47:33;;;;;;;0.93;0.50;;;15.70;99.90;;;;;;5095136;28;20448;-82
2022/05/18 02:50:00;;;;;;;0.60;0.50;;;15.60;99.90;;;;;;5095337;28;20444;-81
2022/05/18 02:52:27;;;;;;;2.10;0.90;;;15.60;99.90;;;;;;5095153;28;20432;-82
2022/05/18 02:57:39;;;;;;;1.03;0.60;;;15.50;99.90;;;;;;5095480;28;20879;-82
2022/05/18 03:00:08;;;;;;;2.00;0.70;;;15.40;99.90;;;;;;5095273;28;20447;-83
2022/05/18 03:02:35;;;;;;;0.83;0.50;;;15.40;99.90;;;;;;5095335;28;20448;-83
2022/05/18 03:05:02;;;;;;;0.47;0.47;;;15.30;99.90;;;;;;5095203;28;20487;-82
2022/05/18 03:07:29;;;;;;;0.73;0.73;;;15.30;99.90;;;;;;5095327;28;20448;-82
2022/05/18 03:09:57;;;;;;;0.87;0.60;;;15.20;99.90;;;;;;5094729;28;20481;-82
2022/05/18 03:12:24;;;;;;;0.40;0.37;;;15.10;99.90;;;;;;5095107;28;20807;-82
2022/05/18 03:14:50;;;;;;;1.07;0.70;;;15.10;99.90;;;;;;5095012;28;20458;-82
2022/05/18 03:17:17;;;;;;;1.80;0.67;;;15.00;99.90;;;;;;5094953;28;20490;-82
2022/05/18 03:19:44;;;;;;;0.60;0.60;;;15.00;99.90;;;;;;5094927;28;20459;-82
2022/05/18 03:24:56;;;;;;;0.83;0.60;;;15.00;99.90;;;;;;5094868;28;20479;-82
2022/05/18 03:27:23;;;;;;;0.63;0.63;;;15.00;99.90;;;;;;5094747;28;20452;-82
2022/05/18 03:29:50;;;;;;;0.50;0.47;;;15.00;99.90;;;;;;5094989;28;20501;-83
2022/05/18 03:32:17;;;;;;;0.87;0.60;;;15.00;99.90;;;;;;5094447;28;20986;-83
2022/05/18 03:34:43;;;;;;;0.77;0.60;;;14.90;99.90;;;;;;5094436;28;20436;-83
2022/05/18 03:37:10;;;;;;;0.40;0.40;;;14.90;99.90;;;;;;5094425;28;20456;-83
2022/05/18 03:39:37;;;;;;;2.10;0.60;;;14.80;99.90;;;;;;5094417;28;20454;-83
2022/05/18 03:42:06;;;;;;;4.50;1.10;;;14.80;99.90;;;;;;5094372;28;20460;-83
2022/05/18 03:44:33;;;;;;;0.70;0.50;;;14.80;99.90;;;;;;5094345;28;20448;-82
2022/05/18 03:47:00;;;;;;;1.43;0.47;;;14.80;99.90;;;;;;5094306;28;20474;-83
2022/05/18 03:49:27;;;;;;;0.70;0.60;;;14.80;99.90;;;;;;5095050;28;20444;-83
2022/05/18 03:51:54;;;;;;;0.60;0.47;;;14.90;99.90;;;;;;5094242;28;20460;-82
2022/05/18 03:54:20;;;;;;;0.43;0.43;;;14.90;99.90;;;;;;5094267;28;20822;-82
2022/05/18 03:56:47;;;;;;;0.60;0.60;;;14.80;99.90;;;;;;5094035;28;20440;-82
2022/05/18 03:59:15;;;;;;;0.40;0.40;;;14.80;99.90;;;;;;5093589;28;20448;-82
2022/05/18 04:01:42;;;;;;;0.63;0.47;;;14.80;99.90;;;;;;5094052;28;20472;-82
2022/05/18 04:04:09;;;;;;;0.80;0.50;;;14.80;99.90;;;;;;5094078;28;20452;-82
2022/05/18 04:06:36;;;;;;;1.47;0.67;;;14.80;99.90;;;;;;5094005;28;20479;-83
2022/05/18 04:09:03;;;;;;;1.23;0.50;;;14.90;99.90;;;;;;5093731;28;20443;-82
2022/05/18 04:11:30;;;;;;;0.40;0.40;;;14.80;99.90;;;;;;5093655;28;20463;-82
2022/05/18 04:13:57;;;;;;;0.50;0.50;;;14.80;99.90;;;;;;5093892;28;20455;-82
2022/05/18 04:16:25;;;;;;;0.60;0.60;;;14.90;99.90;;;;;;5093957;28;20490;-82
2022/05/18 04:18:52;;;;;;;0.93;0.70;;;14.90;99.90;;;;;;5093877;28;20452;-82
2022/05/18 04:21:18;;;;;;;1.90;0.70;;;14.90;99.90;;;;;;5093742;28;20470;-82
2022/05/18 04:23:45;;;;;;;0.87;0.87;;;14.90;99.90;;;;;;5093774;28;20462;-82
2022/05/18 04:26:12;;;;;;;0.70;0.63;;;14.90;99.90;;;;;;5094478;28;20479;-83
2022/05/18 04:28:39;;;;;;;0.50;0.40;;;14.90;99.90;;;;;;5093531;28;20405;-82
2022/05/18 04:31:05;;;;;;;2.13;0.80;;;15.00;99.90;;;;;;5093654;28;20475;-82
2022/05/18 04:33:34;;;;;;;0.90;0.60;;;15.00;99.90;;;;;;5093632;28;20455;-83
2022/05/18 04:36:02;;;;;;;0.50;0.50;;;15.00;99.90;;;;;;5093570;28;20448;-82
2022/05/18 04:38:30;;;;;;;5.00;0.97;;;15.00;99.90;;;;;;5093254;28;20459;-82
2022/05/18 04:40:57;;;;;;;0.70;0.70;;;15.10;99.90;;;;;;5093147;28;20990;-83
2022/05/18 04:43:24;;;;;;;0.60;0.50;;;15.10;99.90;;;;;;5093174;28;21004;-82
2022/05/18 04:45:52;;;;;;;1.33;1.00;;;15.10;99.90;;;;;;5093121;28;20487;-83
2022/05/18 04:48:21;;;;;;;1.00;0.90;;;15.20;99.90;;;;;;5093456;28;20451;-83
2022/05/18 04:50:49;;;;;;;0.73;0.67;;;15.20;99.90;;;;;;5093159;28;20450;-82
2022/05/18 04:53:17;;;;;;;0.50;0.50;;;15.30;99.90;;;;;;5093247;28;20448;-83
2022/05/18 04:55:44;;;;;;;1.53;0.60;;;15.40;99.90;;;;;;5093387;28;20448;-82
2022/05/18 04:58:11;;;;;;;0.90;0.60;;;15.50;99.90;;;;;;5093035;28;20943;-82
2022/05/18 05:00:39;;;;;;;0.60;0.60;;;15.70;99.90;;;;;;5092919;28;20994;-82
2022/05/18 05:03:06;;;;;;;2.90;0.70;;;15.70;99.90;;;;;;5093316;28;20454;-82
2022/05/18 05:05:32;;;;;;;1.47;1.10;;;15.90;99.90;;;;;;5092933;28;20475;-83
2022/05/18 05:08:01;;;;;;;1.20;0.60;;;16.00;99.90;;;;;;5093499;28;20451;-83
2022/05/18 05:10:28;;;;;;;0.50;0.40;;;16.10;99.90;;;;;;5096647;28;20459;-83
2022/05/18 05:12:55;;;;;;;1.30;0.70;;;16.10;99.90;;;;;;5097338;28;20448;-82
2022/05/18 05:15:21;;;;;;;0.50;0.50;;;16.20;99.90;;;;;;5097264;28;20448;-82
2022/05/18 05:17:48;;;;;;;0.60;0.50;;;16.30;99.90;;;;;;5096962;28;20934;-83
2022/05/18 05:20:15;;;;;;;1.10;0.70;;;16.50;99.90;;;;;;5097114;28;20448;-83
2022/05/18 05:22:42;;;;;;;1.63;1.53;;;16.50;99.90;;;;;;5097054;28;20451;-83
2022/05/18 05:25:11;;;;;;;1.63;1.00;;;16.60;99.90;;;;;;5097011;28;20459;-83
2022/05/18 05:27:38;;;;;;;0.90;0.60;;;16.70;99.90;;;;;;5096901;28;20490;-83
2022/05/18 05:30:08;;;;;;;0.50;0.50;;;16.70;99.90;;;;;;5096937;28;20810;-83
2022/05/18 05:32:35;;;;;;;1.60;0.60;;;16.90;99.90;;;;;;5097190;28;20505;-83
2022/05/18 05:35:02;;;;;;;0.60;0.50;;;16.90;99.90;;;;;;5096623;28;20443;-83
2022/05/18 05:37:28;;;;;;;0.53;0.53;;;17.10;99.90;;;;;;5096844;28;20436;-83
2022/05/18 05:39:56;;;;;;;0.53;0.53;;;17.20;99.90;;;;;;5096683;28;20479;-83
2022/05/18 05:42:24;;;;;;;0.60;0.60;;;17.30;99.90;;;;;;5096869;28;20477;-83
2022/05/18 05:44:51;;;;;;;1.50;0.60;;;17.40;99.90;;;;;;5096756;28;20446;-83
2022/05/18 05:47:18;;;;;;;0.90;0.83;;;17.50;99.90;;;;;;5096574;28;20569;-83
2022/05/18 05:49:45;;;;;;;1.00;0.67;;;17.60;99.90;;;;;;5096622;28;20443;-83
2022/05/18 05:52:12;;;;;;;0.93;0.40;;;17.70;99.90;;;;;;5096476;28;20468;-83
2022/05/18 05:54:39;;;;;;;0.90;0.60;;;17.80;99.90;;;;;;5096239;28;20973;-83
2022/05/18 05:57:06;;;;;;;0.93;0.80;;;18.00;99.90;;;;;;5096478;28;20444;-83
2022/05/18 05:59:37;;;;;;;0.50;0.50;;;18.00;99.90;;;;;;5096411;28;20447;-83
2022/05/18 06:02:06;;;;;;;0.70;0.70;;;18.20;99.90;;;;;;5096149;28;20816;-83
2022/05/18 06:04:34;;;;;;;1.37;0.50;;;18.30;99.90;;;;;;5096343;28;20447;-83
2022/05/18 06:07:01;;;;;;;1.47;1.20;;;18.50;99.90;;;;;;5096259;28;20463;-83
2022/05/18 06:09:28;;;;;;;1.83;0.80;;;18.70;99.90;;;;;;5095976;28;20438;-83
2022/05/18 06:11:55;;;;;;;1.10;1.00;;;18.80;99.90;;;;;;5095814;28;20849;-83
2022/05/18 06:14:22;;;;;;;0.87;0.87;;;18.90;99.90;;;;;;5096124;28;20543;-82
2022/05/18 06:16:50;;;;;;;1.23;1.10;;;19.10;99.90;;;;;;5096153;28;20455;-83
2022/05/18 06:19:18;;;;;;;0.57;0.43;;;19.30;99.90;;;;;;5097042;28;20444;-83
2022/05/18 06:21:46;;;;;;;0.90;0.63;;;19.50;99.90;;;;;;5095043;28;20471;-84
2022/05/18 06:24:14;;;;;;;1.20;1.10;;;19.70;99.90;;;;;;5096064;28;20440;-83
2022/05/18 06:26:41;;;;;;;3.53;0.83;;;19.90;99.90;;;;;;5095956;28;20467;-83
2022/05/18 06:29:07;;;;;;;1.63;0.80;;;20.10;99.90;;;;;;5095903;28;20841;-83
2022/05/18 06:31:34;;;;;;;2.47;1.00;;;20.20;99.90;;;;;;5095496;28;21008;-83
2022/05/18 06:34:02;;;;;;;0.63;0.63;;;20.50;99.90;;;;;;5095859;28;20447;-83
2022/05/18 06:36:30;;;;;;;2.53;1.20;;;20.80;99.90;;;;;;5095772;28;20459;-84
2022/05/18 06:38:57;;;;;;;0.57;0.57;;;21.20;99.90;;;;;;5095705;28;20592;-84
2022/05/18 06:41:23;;;;;;;1.33;0.70;;;21.40;99.90;;;;;;5095522;28;20263;-84
2022/05/18 06:43:52;;;;;;;0.80;0.80;;;21.60;99.90;;;;;;5095725;28;20185;-84
2022/05/18 06:46:19;;;;;;;1.02;0.93;;;21.90;99.90;;;;;;5095286;28;20228;-84
2022/05/18 06:48:46;;;;;;;1.02;0.90;;;22.00;99.90;;;;;;5095286;28;20189;-84
2022/05/18 06:51:17;;;;;;;2.22;0.88;;;22.20;99.90;;;;;;5095205;28;20217;-84
2022/05/18 06:53:44;;;;;;;0.70;0.70;;;22.50;99.90;;;;;;5095531;28;20199;-83
2022/05/18 06:56:11;;;;;;;1.15;1.15;;;22.80;99.90;;;;;;5095166;28;20197;-84
2022/05/18 06:58:37;;;;;;;0.70;0.63;;;23.20;99.90;;;;;;5095386;28;20201;-84
2022/05/18 07:01:07;;;;;;;0.90;0.80;;;23.50;99.90;;;;;;5095159;28;20220;-84
2022/05/18 07:03:34;;;;;;;0.88;0.88;;;23.70;99.90;;;;;;5095868;28;20214;-84
2022/05/18 07:06:01;;;;;;;0.80;0.70;;;24.00;99.90;;;;;;5095132;28;20225;-84
2022/05/18 07:08:29;;;;;;;0.80;0.70;;;24.10;99.90;;;;;;5095455;28;20205;-84
2022/05/18 07:10:56;;;;;;;1.50;0.90;;;24.30;99.90;;;;;;5095028;28;20221;-84
2022/05/18 07:13:23;;;;;;;1.30;1.00;;;24.70;99.90;;;;;;5095046;28;20205;-84
2022/05/18 07:15:50;;;;;;;0.80;0.80;;;24.90;99.90;;;;;;5095014;28;20206;-84
2022/05/18 07:18:17;;;;;;;0.75;0.60;;;25.10;99.90;;;;;;5094956;28;20207;-84
2022/05/18 07:20:44;;;;;;;0.80;0.80;;;25.30;99.90;;;;;;5094905;28;20229;-84
2022/05/18 07:23:11;;;;;;;0.80;0.80;;;25.50;99.90;;;;;;5094627;28;20670;-84
2022/05/18 07:25:39;;;;;;;0.70;0.70;;;25.50;99.90;;;;;;5094710;28;20625;-84
2022/05/18 07:28:06;;;;;;;1.58;0.75;;;25.60;99.90;;;;;;5094336;28;20224;-84
2022/05/18 07:30:33;;;;;;;0.60;0.60;;;25.90;99.30;;;;;;5094626;28;20239;-84
2022/05/18 07:33:00;;;;;;;0.93;0.93;;;26.20;98.40;;;;;;5094375;28;20199;-84
2022/05/18 07:35:28;;;;;;;1.25;0.88;;;26.40;98.00;;;;;;5094660;28;20285;-84
2022/05/18 07:37:55;;;;;;;0.90;0.90;;;27.00;96.50;;;;;;5094546;28;20213;-84
2022/05/18 07:40:22;;;;;;;1.13;0.90;;;27.50;96.10;;;;;;5094065;28;20708;-85
2022/05/18 07:42:54;;;;;;;0.98;0.70;;;27.60;94.60;;;;;;5094475;28;20204;-84
2022/05/18 07:45:21;;;;;;;1.38;1.00;;;28.30;93.60;;;;;;5094533;28;20189;-84
2022/05/18 07:47:48;;;;;;;2.15;1.00;;;28.80;91.60;;;;;;5094318;28;20226;-84
2022/05/18 07:50:16;;;;;;;0.70;0.70;;;29.00;90.50;;;;;;5094606;28;20196;-84
2022/05/18 07:52:43;;;;;;;1.30;1.17;;;29.40;85.00;;;;;;5094551;28;20254;-85
2022/05/18 07:55:10;;;;;;;1.40;1.08;;;29.60;84.00;;;;;;5094385;28;20225;-84
2022/05/18 07:57:37;;;;;;;0.90;0.90;;;30.50;83.20;;;;;;5094210;28;20207;-84
2022/05/18 08:00:08;;;;;;;0.77;0.77;;;31.60;75.20;;;;;;5093797;28;20288;-84
2022/05/18 08:02:36;;;;;;;1.63;1.15;;;32.60;70.20;;;;;;5094840;28;20202;-84
2022/05/18 08:05:04;;;;;;;1.00;0.90;;;33.40;66.50;;;;;;5093738;28;20669;-85
2022/05/18 08:07:30;;;;;;;0.75;0.75;;;33.90;62.60;;;;;;5093990;28;20210;-85
2022/05/18 08:15:29;;;;;;;0.82;0.82;;;33.30;58.80;;;;;;5094087;28;20648;-84
2022/05/18 08:17:56;;;;;;;0.68;0.68;;;32.60;58.60;;;;;;5093847;28;20187;-84
2022/05/18 08:20:24;;;;;;;1.23;0.90;;;31.80;60.70;;;;;;5093717;28;20323;-84
2022/05/18 08:22:51;;;;;;;1.50;0.70;;;31.00;61.10;;;;;;5093528;28;20685;-85
2022/05/18 08:25:18;;;;;;;1.13;1.08;;;30.40;64.50;;;;;;5093769;28;20209;-85
2022/05/18 08:27:47;;;;;;;0.80;0.80;;;30.10;62.70;;;;;;5094303;28;20212;-85
2022/05/18 08:30:17;;;;;;;0.77;0.77;;;29.80;63.10;;;;;;5093353;28;20359;-85
2022/05/18 08:32:46;;;;;;;0.70;0.70;;;29.70;64.80;;;;;;5094003;28;20190;-84
2022/05/18 08:35:14;;;;;;;2.03;0.77;;;29.80;64.20;;;;;;5093709;28;20193;-83
2022/05/18 08:37:43;;;;;;;1.85;1.00;;;29.80;63.00;;;;;;5093718;28;20180;-84
2022/05/18 08:40:19;;;;;;;0.77;0.75;;;29.70;63.40;;;;;;5093646;28;20229;-83
2022/05/18 08:42:45;;;;;;;1.20;1.10;;;29.60;62.50;;;;;;5093585;28;20193;-84
2022/05/18 08:45:12;;;;;;;0.82;0.82;;;29.50;63.00;;;;;;5093118;28;20193;-84
2022/05/18 08:47:42;;;;;;;0.93;0.88;;;29.30;63.10;;;;;;5093159;28;20205;-84
2022/05/18 08:50:13;;;;;;;1.02;0.73;;;29.10;63.80;;;;;;5093104;28;20674;-83
2022/05/18 08:52:54;;;;;;;1.80;1.10;;;28.80;63.20;;;;;;5093494;28;20193;-84
2022/05/18 08:55:49;;;;;;;1.13;0.88;;;28.60;63.60;;;;;;5093207;28;20192;-82
2022/05/18 08:58:21;;;;;;;0.85;0.77;;;28.30;64.60;;;;;;5093311;28;20210;-83
2022/05/18 09:00:54;;;;;;;1.27;1.00;;;28.40;64.60;;;;;;5093021;28;20281;-83
2022/05/18 09:03:26;;;;;;;0.95;0.95;;;28.50;65.30;;;;;;5093084;28;20193;-83
2022/05/18 09:06:02;;;;;;;1.60;0.85;;;28.60;65.40;;;;;;5093215;28;20213;-84
2022/05/18 09:08:33;;;;;;;1.40;1.20;;;28.60;63.90;;;;;;5092925;28;20220;-83
2022/05/18 09:11:04;;;;;;;1.10;1.00;;;28.70;64.10;;;;;;5093001;28;20214;-84
2022/05/18 09:13:31;;;;;;;1.10;1.00;;;28.60;62.40;;;;;;5093321;28;20212;-84
2022/05/18 09:16:09;;;;;;;1.52;0.80;;;28.40;63.30;;;;;;5093288;28;20208;-84
2022/05/18 09:18:46;;;;;;;1.02;0.70;;;28.50;61.60;;;;;;5093023;28;20205;-83
2022/05/18 09:21:33;;;;;;;2.67;0.70;;;28.60;61.10;;;;;;5093123;28;20758;-84
2022/05/18 09:24:11;;;;;;;0.60;0.60;;;28.60;59.10;;;;;;5092907;28;20204;-83
2022/05/18 09:26:51;;;;;;;0.60;0.60;;;28.60;58.90;;;;;;5093148;28;20188;-83
2022/05/18 09:29:26;;;;;;;0.77;0.65;;;28.50;57.60;;;;;;5093419;28;20188;-84
2022/05/18 09:32:16;;;;;;;1.30;0.60;;;28.20;59.60;;;;;;5093057;28;20281;-84
2022/05/18 09:35:05;;;;;;;0.60;0.50;;;27.90;56.90;;;;;;5092964;28;20263;-84
2022/05/18 09:37:37;;;;;;;0.80;0.50;;;27.80;55.80;;;;;;5093062;28;20186;-83
2022/05/18 09:40:09;;;;;;;0.60;0.60;;;27.90;57.30;;;;;;5092748;28;20715;-84
2022/05/18 09:42:43;;;;;;;2.05;0.70;;;27.90;57.50;;;;;;5093257;28;20622;-84
2022/05/18 09:45:14;;;;;;;0.70;0.70;;;27.80;58.90;;;;;;5093055;28;20187;-84
2022/05/18 09:47:46;;;;;;;0.70;0.70;;;27.60;57.80;;;;;;5092771;28;20626;-83
2022/05/18 09:50:13;;;;;;;1.02;0.60;;;27.60;57.60;;;;;;5092956;28;20190;-84
2022/05/18 09:52:44;;;;;;;2.53;0.90;;;27.50;58.80;;;;;;5092657;28;20231;-84
2022/05/18 09:55:14;;;;;;;1.40;0.90;;;27.50;60.80;;;;;;5093618;28;20558;-83
2022/05/18 09:57:46;;;;;;;1.30;0.60;;;27.50;61.50;;;;;;5096352;28;20217;-83
2022/05/18 10:00:18;;;;;;;0.88;0.70;;;27.40;61.80;;;;;;5096473;28;20185;-83
2022/05/18 10:08:22;;;;;;;1.00;0.90;;;27.30;63.00;;;;;;5096353;28;20212;-81
2022/05/18 10:10:56;;;;;;;0.88;0.70;;;27.40;60.80;;;;;;5096090;28;20224;-83
2022/05/18 10:13:28;;;;;;;0.85;0.75;;;27.40;61.20;;;;;;5097149;28;20193;-83
2022/05/18 10:16:04;;;;;;;1.33;0.70;;;27.40;60.00;;;;;;5095973;28;20659;-83
2022/05/18 10:18:39;;;;;;;2.03;0.80;;;27.40;59.80;;;;;;5096141;28;20204;-83
2022/05/18 10:21:26;;;;;;;1.67;0.90;;;27.20;61.10;;;;;;5096123;28;20273;-83
2022/05/18 10:23:59;;;;;;;0.80;0.80;;;27.30;62.20;;;;;;5093008;28;20288;-83
2022/05/18 10:26:30;;;;;;;0.80;0.80;;;27.50;61.90;;;;;;5095835;28;20565;-83
2022/05/18 10:29:00;;;;;;;0.65;0.65;;;27.70;62.30;;;;;;5095931;28;20201;-84
2022/05/18 10:31:31;;;;;;;0.77;0.77;;;27.80;61.50;;;;;;5096994;28;20224;-82
2022/05/18 10:34:19;;;;;;;1.23;0.88;;;27.70;61.90;;;;;;5095935;28;20235;-82
2022/05/18 10:36:48;;;;;;;0.88;0.68;;;27.70;61.60;;;;;;5096349;28;20186;-82
2022/05/18 10:39:33;;;;;;;1.00;0.55;;;27.70;59.70;;;;;;5095846;28;20231;-82
2022/05/18 10:42:08;;;;;;;0.60;0.50;;;27.60;61.60;;;;;;5095679;28;20221;-81
2022/05/18 10:44:36;;;;;;;0.70;0.60;;;27.70;60.10;;;;;;5096487;28;20189;-82
2022/05/18 10:47:19;;;;;;;0.70;0.70;;;27.70;62.10;;;;;;5095322;28;20174;-82
2022/05/18 10:49:46;;;;;;;2.78;0.82;;;27.70;64.00;;;;;;5095637;28;20189;-84
2022/05/18 10:52:16;;;;;;;0.80;0.80;;;27.70;63.20;;;;;;5095490;28;20221;-81
2022/05/18 10:54:55;;;;;;;1.90;0.82;;;27.70;61.10;;;;;;5095181;28;20664;-82
2022/05/18 10:57:31;;;;;;;3.83;1.15;;;27.70;62.20;;;;;;5095445;28;20194;-82
2022/05/18 11:00:05;;;;;;;0.82;0.70;;;27.70;62.60;;;;;;5095403;28;20574;-83
2022/05/18 11:02:39;;;;;;;1.00;0.90;;;27.90;62.00;;;;;;5095072;28;20641;-81
2022/05/18 11:05:17;;;;;;;0.70;0.70;;;28.20;61.90;;;;;;5095506;28;20233;-81
2022/05/18 11:07:44;;;;;;;0.80;0.80;;;28.10;58.60;;;;;;5095062;28;20212;-81
2022/05/18 11:10:14;;;;;;;0.75;0.75;;;28.00;59.50;;;;;;5094798;28;20676;-81
2022/05/18 11:12:48;;;;;;;0.80;0.70;;;27.80;61.40;;;;;;5095166;28;20315;-83
2022/05/18 11:15:24;;;;;;;0.90;0.80;;;27.80;61.60;;;;;;5095114;28;20178;-83
2022/05/18 11:18:04;;;;;;;0.68;0.63;;;27.70;61.50;;;;;;5094799;28;20181;-83
2022/05/18 11:20:45;;;;;;;0.60;0.60;;;27.60;62.50;;;;;;5095046;28;20217;-84
2022/05/18 11:23:30;;;;;;;0.80;0.77;;;27.50;61.80;;;;;;5094686;28;20185;-83
2022/05/18 11:26:09;;;;;;;2.03;0.80;;;27.30;63.50;;;;;;5094913;28;20177;-83
2022/05/18 11:28:45;;;;;;;1.52;1.10;;;27.20;63.30;;;;;;5094827;28;20202;-84
2022/05/18 11:31:35;;;;;;;0.90;0.85;;;27.10;62.80;;;;;;5095188;28;20236;-84
2022/05/18 11:34:10;;;;;;;0.60;0.60;;;27.10;64.30;;;;;;5095223;28;20201;-84
2022/05/18 11:36:45;;;;;;;0.75;0.75;;;27.00;64.90;;;;;;5094681;28;20196;-84
2022/05/18 11:39:22;;;;;;;0.85;0.85;;;27.00;65.90;;;;;;5094636;28;20189;-83
2022/05/18 11:42:07;;;;;;;0.88;0.85;;;27.10;66.20;;;;;;5094104;28;20240;-83
2022/05/18 11:44:46;;;;;;;1.05;0.70;;;27.10;63.70;;;;;;5094268;28;20653;-84
2022/05/18 11:47:29;;;;;;;0.77;0.77;;;26.90;64.00;;;;;;5094198;28;20177;-84
2022/05/18 11:50:07;;;;;;;0.73;0.70;;;26.80;64.70;;;;;;5094947;28;20186;-84
2022/05/18 11:52:53;;;;;;;0.60;0.55;;;26.70;62.00;;;;;;5094649;28;20196;-83
2022/05/18 11:55:34;;;;;;;0.60;0.60;;;26.70;62.70;;;;;;5094075;28;20661;-84
2022/05/18 11:58:13;;;;;;;0.90;0.90;;;26.70;62.00;;;;;;5094064;28;20543;-84
2022/05/18 12:00:56;;;;;;;0.75;0.75;;;26.60;62.70;;;;;;5094277;28;20225;-84
2022/05/18 12:03:39;;;;;;;0.60;0.60;;;26.60;63.50;;;;;;5094496;28;20197;-84
2022/05/18 12:06:28;;;;;;;0.90;0.77;;;26.50;63.30;;;;;;5094181;28;20188;-84
2022/05/18 12:09:11;;;;;;;1.05;0.70;;;26.50;63.30;;;;;;5093698;28;20661;-82
2022/05/18 12:11:52;;;;;;;0.50;0.50;;;26.50;63.90;;;;;;5094195;28;20225;-84
2022/05/18 12:14:37;;;;;;;0.98;0.75;;;26.70;64.90;;;;;;5094018;28;20186;-84
2022/05/18 12:17:09;;;;;;;0.60;0.60;;;26.60;63.20;;;;;;5094023;28;20185;-84
2022/05/18 12:19:47;;;;;;;1.23;1.15;;;26.60;62.10;;;;;;5093301;28;20671;-84
2022/05/18 12:22:19;;;;;;;1.15;0.60;;;26.50;62.50;;;;;;5093807;28;20229;-83
2022/05/18 12:24:47;;;;;;;0.70;0.60;;;26.50;62.00;;;;;;5093910;28;20221;-84
2022/05/18 12:27:17;;;;;;;0.70;0.70;;;26.50;61.50;;;;;;5093372;28;20706;-84
2022/05/18 12:29:46;;;;;;;0.50;0.50;;;26.50;60.00;;;;;;5093692;28;20208;-84
2022/05/18 12:32:15;;;;;;;0.63;0.63;;;26.40;59.40;;;;;;5093419;28;20726;-84
2022/05/18 12:34:54;;;;;;;0.60;0.50;;;26.40;58.30;;;;;;5093746;28;20201;-85
2022/05/18 12:37:29;;;;;;;0.60;0.40;;;26.30;58.00;;;;;;5093744;28;20268;-84
2022/05/18 12:40:17;;;;;;;1.05;0.50;;;26.20;56.40;;;;;;5093368;28;20691;-84
2022/05/18 12:42:50;;;;;;;0.93;0.57;;;26.10;57.20;;;;;;5093347;28;20676;-84
2022/05/18 12:45:32;;;;;;;0.55;0.55;;;26.00;58.20;;;;;;5093524;28;20663;-85
2022/05/18 12:48:12;;;;;;;0.50;0.50;;;26.00;57.30;;;;;;5093502;28;20213;-84
2022/05/18 12:50:43;;;;;;;0.47;0.47;;;26.00;57.60;;;;;;5093157;28;20243;-84
2022/05/18 12:53:15;;;;;;;1.77;0.70;;;26.00;58.20;;;;;;5093558;28;20190;-84
2022/05/18 12:55:45;;;;;;;0.65;0.60;;;25.90;58.00;;;;;;5093559;28;20629;-84
2022/05/18 12:58:29;;;;;;;0.50;0.50;;;25.90;57.60;;;;;;5093088;28;20205;-83
2022/05/18 13:01:10;;;;;;;0.70;0.50;;;25.90;58.80;;;;;;5091665;28;20225;-84
2022/05/18 13:03:44;;;;;;;0.80;0.80;;;25.90;59.40;;;;;;5093166;28;20639;-83
2022/05/18 13:06:14;;;;;;;0.50;0.50;;;26.00;59.00;;;;;;5093159;28;20279;-84
2022/05/18 13:09:04;;;;;;;0.60;0.60;;;26.10;58.40;;;;;;5093634;28;20626;-84
2022/05/18 13:11:50;;;;;;;1.70;0.60;;;26.10;59.20;;;;;;5093289;28;20590;-85
2022/05/18 13:14:37;;;;;;;0.82;0.50;;;26.00;57.30;;;;;;5093322;28;20181;-82
2022/05/18 13:17:20;;;;;;;0.60;0.50;;;26.00;57.50;;;;;;5093028;28;20193;-84
2022/05/18 13:20:01;;;;;;;0.40;0.40;;;25.90;56.90;;;;;;5093497;28;20190;-84
2022/05/18 13:22:59;;;;;;;0.95;0.60;;;25.90;56.60;;;;;;5093261;28;20208;-84